sensor_id;sensor_type;location;lat;lon;timestamp;pressure;altitude;pressure_sealevel;temperature;humidity
46886;BME280;32622;48.202;11.326;2024-01-30T00:01:47;1035.99;;;-0.13;32.99
46886;BME280;32622;48.202;11.326;2024-01-30T00:03:50;1036.01;;;-0.22;33.09
46886;BME280;32622;48.202;11.326;2024-01-30T00:05:52;1036.10;;;-0.62;33.07
46886;BME280;32622;48.202;11.326;2024-01-30T00:07:54;1036.16;;;-0.82;33.20
46886;BME280;32622;48.202;11.326;2024-01-30T00:09:56;1036.06;;;-0.45;32.97
46886;BME280;32622;48.202;11.326;2024-01-30T00:11:58;1036.12;;;-0.62;32.84
46886;BME280;32622;48.202;11.326;2024-01-30T00:14:01;1036.14;;;-0.66;32.83
46886;BME280;32622;48.202;11.326;2024-01-30T00:16:03;1036.13;;;-0.62;33.06
46886;BME280;32622;48.202;11.326;2024-01-30T00:18:06;1036.19;;;-0.81;32.49
46886;BME280;32622;48.202;11.326;2024-01-30T00:20:08;1036.12;;;-0.53;32.64
46886;BME280;32622;48.202;11.326;2024-01-30T00:22:11;1036.12;;;-0.59;32.60
46886;BME280;32622;48.202;11.326;2024-01-30T00:24:13;1036.13;;;-0.58;33.11
46886;BME280;32622;48.202;11.326;2024-01-30T00:26:15;1036.17;;;-0.63;33.34
46886;BME280;32622;48.202;11.326;2024-01-30T00:28:17;1036.29;;;-1.10;32.97
46886;BME280;32622;48.202;11.326;2024-01-30T00:30:20;1036.18;;;-0.58;32.90
46886;BME280;32622;48.202;11.326;2024-01-30T00:32:22;1036.13;;;-0.29;32.63
46886;BME280;32622;48.202;11.326;2024-01-30T00:34:25;1036.29;;;-0.72;32.63
46886;BME280;32622;48.202;11.326;2024-01-30T00:36:27;1036.24;;;-0.47;32.87
46886;BME280;32622;48.202;11.326;2024-01-30T00:38:29;1036.29;;;-0.73;33.30
46886;BME280;32622;48.202;11.326;2024-01-30T00:40:31;1036.34;;;-0.89;33.04
46886;BME280;32622;48.202;11.326;2024-01-30T00:42:33;1036.29;;;-0.74;33.12
46886;BME280;32622;48.202;11.326;2024-01-30T00:44:36;1036.31;;;-0.78;32.95
46886;BME280;32622;48.202;11.326;2024-01-30T00:46:38;1036.25;;;-0.59;32.85
46886;BME280;32622;48.202;11.326;2024-01-30T00:48:40;1036.26;;;-0.71;33.22
46886;BME280;32622;48.202;11.326;2024-01-30T00:50:42;1036.33;;;-0.93;33.29
46886;BME280;32622;48.202;11.326;2024-01-30T00:52:44;1036.24;;;-0.67;33.42
46886;BME280;32622;48.202;11.326;2024-01-30T00:54:46;1036.25;;;-0.76;33.24
46886;BME280;32622;48.202;11.326;2024-01-30T00:56:49;1036.26;;;-0.78;33.22
46886;BME280;32622;48.202;11.326;2024-01-30T00:58:51;1036.17;;;-0.34;33.35
46886;BME280;32622;48.202;11.326;2024-01-30T01:00:54;1036.34;;;-1.02;33.29
46886;BME280;32622;48.202;11.326;2024-01-30T01:02:56;1036.32;;;-0.96;33.14
46886;BME280;32622;48.202;11.326;2024-01-30T01:04:58;1036.30;;;-0.87;33.23
46886;BME280;32622;48.202;11.326;2024-01-30T01:07:00;1036.38;;;-1.24;33.52
46886;BME280;32622;48.202;11.326;2024-01-30T01:09:02;1036.36;;;-1.23;33.65
46886;BME280;32622;48.202;11.326;2024-01-30T01:11:04;1036.29;;;-1.11;33.44
46886;BME280;32622;48.202;11.326;2024-01-30T01:13:06;1036.36;;;-1.20;33.36
46886;BME280;32622;48.202;11.326;2024-01-30T01:15:09;1036.28;;;-1.02;33.13
46886;BME280;32622;48.202;11.326;2024-01-30T01:17:12;1036.23;;;-0.83;33.11
46886;BME280;32622;48.202;11.326;2024-01-30T01:19:14;1036.33;;;-1.18;33.14
46886;BME280;32622;48.202;11.326;2024-01-30T01:21:16;1036.24;;;-0.95;33.33
46886;BME280;32622;48.202;11.326;2024-01-30T01:23:18;1036.34;;;-1.37;33.36
46886;BME280;32622;48.202;11.326;2024-01-30T01:25:20;1036.33;;;-1.41;33.55
46886;BME280;32622;48.202;11.326;2024-01-30T01:27:23;1036.39;;;-1.45;33.48
46886;BME280;32622;48.202;11.326;2024-01-30T01:29:25;1036.32;;;-0.98;32.93
46886;BME280;32622;48.202;11.326;2024-01-30T01:31:27;1036.38;;;-1.30;33.06
46886;BME280;32622;48.202;11.326;2024-01-30T01:33:29;1036.38;;;-1.29;33.43
46886;BME280;32622;48.202;11.326;2024-01-30T01:35:32;1036.44;;;-1.52;33.54
46886;BME280;32622;48.202;11.326;2024-01-30T01:37:34;1036.19;;;-0.71;33.58
46886;BME280;32622;48.202;11.326;2024-01-30T01:39:36;1036.42;;;-1.50;33.27
46886;BME280;32622;48.202;11.326;2024-01-30T01:41:38;1036.26;;;-0.82;33.24
46886;BME280;32622;48.202;11.326;2024-01-30T01:43:40;1036.33;;;-1.15;33.16
46886;BME280;32622;48.202;11.326;2024-01-30T01:45:42;1036.25;;;-0.82;33.51
46886;BME280;32622;48.202;11.326;2024-01-30T01:47:47;1036.35;;;-1.18;33.86
46886;BME280;32622;48.202;11.326;2024-01-30T01:49:49;1036.25;;;-0.75;33.90
46886;BME280;32622;48.202;11.326;2024-01-30T01:51:54;1036.46;;;-1.58;33.88
46886;BME280;32622;48.202;11.326;2024-01-30T01:53:58;1036.35;;;-1.37;33.73
46886;BME280;32622;48.202;11.326;2024-01-30T01:56:01;1036.33;;;-1.44;33.89
46886;BME280;32622;48.202;11.326;2024-01-30T01:58:04;1036.33;;;-1.32;33.75
46886;BME280;32622;48.202;11.326;2024-01-30T02:00:09;1036.35;;;-1.47;33.56
46886;BME280;32622;48.202;11.326;2024-01-30T02:02:13;1036.34;;;-1.35;33.53
46886;BME280;32622;48.202;11.326;2024-01-30T02:04:16;1036.35;;;-1.50;33.38
46886;BME280;32622;48.202;11.326;2024-01-30T02:06:19;1036.33;;;-1.41;33.36
46886;BME280;32622;48.202;11.326;2024-01-30T02:08:22;1036.32;;;-1.48;33.46
46886;BME280;32622;48.202;11.326;2024-01-30T02:10:24;1036.36;;;-1.64;33.40
46886;BME280;32622;48.202;11.326;2024-01-30T02:12:26;1036.29;;;-1.34;33.19
46886;BME280;32622;48.202;11.326;2024-01-30T02:14:28;1036.23;;;-1.10;33.35
46886;BME280;32622;48.202;11.326;2024-01-30T02:16:30;1036.32;;;-1.55;33.49
46886;BME280;32622;48.202;11.326;2024-01-30T02:18:32;1036.33;;;-1.60;33.41
46886;BME280;32622;48.202;11.326;2024-01-30T02:20:35;1036.25;;;-1.27;33.43
46886;BME280;32622;48.202;11.326;2024-01-30T02:22:41;1036.31;;;-1.52;33.20
46886;BME280;32622;48.202;11.326;2024-01-30T02:24:43;1036.32;;;-1.45;33.15
46886;BME280;32622;48.202;11.326;2024-01-30T02:26:45;1036.33;;;-1.57;33.06
46886;BME280;32622;48.202;11.326;2024-01-30T02:28:47;1036.21;;;-1.17;33.16
46886;BME280;32622;48.202;11.326;2024-01-30T02:30:49;1036.36;;;-1.73;33.42
46886;BME280;32622;48.202;11.326;2024-01-30T02:32:51;1036.27;;;-1.32;33.57
46886;BME280;32622;48.202;11.326;2024-01-30T02:34:54;1036.33;;;-1.41;33.31
46886;BME280;32622;48.202;11.326;2024-01-30T02:36:56;1036.37;;;-1.57;33.05
46886;BME280;32622;48.202;11.326;2024-01-30T02:38:58;1036.42;;;-1.88;34.08
46886;BME280;32622;48.202;11.326;2024-01-30T02:41:00;1036.31;;;-1.58;33.84
46886;BME280;32622;48.202;11.326;2024-01-30T02:43:03;1036.34;;;-1.66;34.18
46886;BME280;32622;48.202;11.326;2024-01-30T02:45:06;1036.46;;;-2.39;34.18
46886;BME280;32622;48.202;11.326;2024-01-30T02:47:09;1036.33;;;-1.73;34.23
46886;BME280;32622;48.202;11.326;2024-01-30T02:49:11;1036.26;;;-1.58;33.82
46886;BME280;32622;48.202;11.326;2024-01-30T02:51:13;1036.35;;;-1.97;33.74
46886;BME280;32622;48.202;11.326;2024-01-30T02:53:15;1036.25;;;-1.63;33.60
46886;BME280;32622;48.202;11.326;2024-01-30T02:55:17;1036.19;;;-1.62;33.68
46886;BME280;32622;48.202;11.326;2024-01-30T02:57:19;1036.27;;;-1.97;33.74
46886;BME280;32622;48.202;11.326;2024-01-30T02:59:21;1036.10;;;-1.40;33.63
46886;BME280;32622;48.202;11.326;2024-01-30T03:01:23;1036.22;;;-1.93;33.55
46886;BME280;32622;48.202;11.326;2024-01-30T03:03:26;1036.08;;;-1.26;33.42
46886;BME280;32622;48.202;11.326;2024-01-30T03:05:28;1036.30;;;-2.28;33.53
46886;BME280;32622;48.202;11.326;2024-01-30T03:07:30;1036.20;;;-1.84;33.29
46886;BME280;32622;48.202;11.326;2024-01-30T03:09:32;1036.09;;;-1.31;33.38
46886;BME280;32622;48.202;11.326;2024-01-30T03:11:34;1036.19;;;-1.79;33.18
46886;BME280;32622;48.202;11.326;2024-01-30T03:13:36;1036.22;;;-2.00;33.29
46886;BME280;32622;48.202;11.326;2024-01-30T03:15:38;1036.22;;;-1.93;33.40
46886;BME280;32622;48.202;11.326;2024-01-30T03:17:41;1036.18;;;-1.76;33.15
46886;BME280;32622;48.202;11.326;2024-01-30T03:19:43;1036.20;;;-1.98;33.36
46886;BME280;32622;48.202;11.326;2024-01-30T03:21:45;1036.17;;;-1.85;33.30
46886;BME280;32622;48.202;11.326;2024-01-30T03:23:47;1036.11;;;-1.64;32.89
46886;BME280;32622;48.202;11.326;2024-01-30T03:25:49;1036.05;;;-1.44;33.20
46886;BME280;32622;48.202;11.326;2024-01-30T03:27:51;1036.09;;;-1.67;32.99
46886;BME280;32622;48.202;11.326;2024-01-30T03:29:54;1036.04;;;-1.61;33.34
46886;BME280;32622;48.202;11.326;2024-01-30T03:31:56;1036.00;;;-1.47;33.26
46886;BME280;32622;48.202;11.326;2024-01-30T03:33:58;1035.96;;;-1.26;33.05
46886;BME280;32622;48.202;11.326;2024-01-30T03:36:04;1036.13;;;-1.87;33.07
46886;BME280;32622;48.202;11.326;2024-01-30T03:38:06;1036.12;;;-1.87;33.25
46886;BME280;32622;48.202;11.326;2024-01-30T03:40:09;1036.11;;;-1.76;33.25
46886;BME280;32622;48.202;11.326;2024-01-30T03:42:11;1036.18;;;-2.06;33.29
46886;BME280;32622;48.202;11.326;2024-01-30T03:44:13;1036.13;;;-1.98;33.20
46886;BME280;32622;48.202;11.326;2024-01-30T03:46:15;1036.00;;;-1.42;33.13
46886;BME280;32622;48.202;11.326;2024-01-30T03:48:18;1036.07;;;-1.82;32.97
46886;BME280;32622;48.202;11.326;2024-01-30T03:50:20;1035.99;;;-1.55;33.01
46886;BME280;32622;48.202;11.326;2024-01-30T03:52:22;1036.10;;;-1.96;32.91
46886;BME280;32622;48.202;11.326;2024-01-30T03:54:24;1036.18;;;-2.18;33.10
46886;BME280;32622;48.202;11.326;2024-01-30T03:56:26;1036.11;;;-1.87;33.22
46886;BME280;32622;48.202;11.326;2024-01-30T03:58:28;1036.19;;;-2.27;33.20
46886;BME280;32622;48.202;11.326;2024-01-30T04:00:31;1036.20;;;-2.28;33.24
46886;BME280;32622;48.202;11.326;2024-01-30T04:02:33;1036.11;;;-1.95;33.24
46886;BME280;32622;48.202;11.326;2024-01-30T04:04:35;1036.03;;;-1.77;33.06
46886;BME280;32622;48.202;11.326;2024-01-30T04:06:37;1035.99;;;-1.67;32.96
46886;BME280;32622;48.202;11.326;2024-01-30T04:08:39;1036.12;;;-2.12;32.76
46886;BME280;32622;48.202;11.326;2024-01-30T04:10:41;1036.03;;;-1.62;32.79
46886;BME280;32622;48.202;11.326;2024-01-30T04:12:43;1036.19;;;-2.13;33.03
46886;BME280;32622;48.202;11.326;2024-01-30T04:14:46;1036.05;;;-1.63;32.90
46886;BME280;32622;48.202;11.326;2024-01-30T04:16:48;1036.12;;;-1.83;33.24
46886;BME280;32622;48.202;11.326;2024-01-30T04:18:50;1036.24;;;-2.26;33.42
46886;BME280;32622;48.202;11.326;2024-01-30T04:20:54;1036.15;;;-2.07;33.08
46886;BME280;32622;48.202;11.326;2024-01-30T04:22:56;1036.09;;;-1.81;33.13
46886;BME280;32622;48.202;11.326;2024-01-30T04:24:58;1036.06;;;-1.72;33.22
46886;BME280;32622;48.202;11.326;2024-01-30T04:27:00;1036.11;;;-1.85;33.29
46886;BME280;32622;48.202;11.326;2024-01-30T04:29:02;1036.14;;;-1.93;33.21
46886;BME280;32622;48.202;11.326;2024-01-30T04:31:04;1036.26;;;-2.47;33.54
46886;BME280;32622;48.202;11.326;2024-01-30T04:33:07;1036.17;;;-2.08;33.43
46886;BME280;32622;48.202;11.326;2024-01-30T04:35:09;1036.16;;;-2.03;33.19
46886;BME280;32622;48.202;11.326;2024-01-30T04:37:11;1036.31;;;-2.70;33.12
46886;BME280;32622;48.202;11.326;2024-01-30T04:39:13;1036.25;;;-2.30;33.33
46886;BME280;32622;48.202;11.326;2024-01-30T04:41:15;1036.15;;;-2.05;33.44
46886;BME280;32622;48.202;11.326;2024-01-30T04:43:17;1036.14;;;-2.00;33.33
46886;BME280;32622;48.202;11.326;2024-01-30T04:45:19;1036.11;;;-1.86;33.13
46886;BME280;32622;48.202;11.326;2024-01-30T04:47:22;1036.11;;;-2.04;32.89
46886;BME280;32622;48.202;11.326;2024-01-30T04:49:24;1036.07;;;-1.72;32.86
46886;BME280;32622;48.202;11.326;2024-01-30T04:51:26;1036.13;;;-1.80;32.93
46886;BME280;32622;48.202;11.326;2024-01-30T04:53:29;1036.16;;;-1.94;33.10
46886;BME280;32622;48.202;11.326;2024-01-30T04:55:31;1036.15;;;-1.86;33.05
46886;BME280;32622;48.202;11.326;2024-01-30T04:57:33;1036.12;;;-1.69;33.04
46886;BME280;32622;48.202;11.326;2024-01-30T04:59:35;1036.11;;;-1.72;32.87
46886;BME280;32622;48.202;11.326;2024-01-30T05:01:38;1036.16;;;-1.85;33.03
46886;BME280;32622;48.202;11.326;2024-01-30T05:03:40;1036.28;;;-2.42;33.19
46886;BME280;32622;48.202;11.326;2024-01-30T05:05:42;1036.19;;;-2.05;33.07
46886;BME280;32622;48.202;11.326;2024-01-30T05:07:44;1036.22;;;-2.14;33.15
46886;BME280;32622;48.202;11.326;2024-01-30T05:09:46;1036.13;;;-1.82;32.89
46886;BME280;32622;48.202;11.326;2024-01-30T05:11:48;1036.14;;;-1.87;32.82
46886;BME280;32622;48.202;11.326;2024-01-30T05:13:50;1036.03;;;-1.45;32.45
46886;BME280;32622;48.202;11.326;2024-01-30T05:15:53;1036.08;;;-1.59;32.67
46886;BME280;32622;48.202;11.326;2024-01-30T05:17:55;1036.10;;;-1.52;33.00
46886;BME280;32622;48.202;11.326;2024-01-30T05:19:57;1036.20;;;-1.92;32.98
46886;BME280;32622;48.202;11.326;2024-01-30T05:21:59;1036.21;;;-1.94;32.92
46886;BME280;32622;48.202;11.326;2024-01-30T05:24:02;1036.37;;;-2.54;33.13
46886;BME280;32622;48.202;11.326;2024-01-30T05:26:04;1036.21;;;-1.96;33.01
46886;BME280;32622;48.202;11.326;2024-01-30T05:28:06;1036.32;;;-2.50;33.13
46886;BME280;32622;48.202;11.326;2024-01-30T05:30:09;1036.22;;;-1.91;33.12
46886;BME280;32622;48.202;11.326;2024-01-30T05:32:11;1036.25;;;-1.96;32.95
46886;BME280;32622;48.202;11.326;2024-01-30T05:34:14;1036.26;;;-2.24;32.85
46886;BME280;32622;48.202;11.326;2024-01-30T05:36:16;1036.17;;;-1.81;32.56
46886;BME280;32622;48.202;11.326;2024-01-30T05:38:18;1036.22;;;-2.02;32.95
46886;BME280;32622;48.202;11.326;2024-01-30T05:40:20;1036.07;;;-1.51;32.21
46886;BME280;32622;48.202;11.326;2024-01-30T05:42:22;1036.25;;;-1.96;32.84
46886;BME280;32622;48.202;11.326;2024-01-30T05:44:24;1036.39;;;-2.31;33.00
46886;BME280;32622;48.202;11.326;2024-01-30T05:46:26;1036.27;;;-1.83;33.34
46886;BME280;32622;48.202;11.326;2024-01-30T05:48:28;1036.32;;;-2.08;33.17
46886;BME280;32622;48.202;11.326;2024-01-30T05:50:31;1036.32;;;-2.15;33.36
46886;BME280;32622;48.202;11.326;2024-01-30T05:52:33;1036.34;;;-2.08;33.11
46886;BME280;32622;48.202;11.326;2024-01-30T05:54:35;1036.35;;;-2.18;33.26
46886;BME280;32622;48.202;11.326;2024-01-30T05:56:37;1036.40;;;-2.32;33.46
46886;BME280;32622;48.202;11.326;2024-01-30T05:58:39;1036.44;;;-2.44;33.29
46886;BME280;32622;48.202;11.326;2024-01-30T06:00:41;1036.46;;;-2.52;33.05
46886;BME280;32622;48.202;11.326;2024-01-30T06:02:43;1036.35;;;-2.05;33.27
46886;BME280;32622;48.202;11.326;2024-01-30T06:04:46;1036.47;;;-2.53;33.33
46886;BME280;32622;48.202;11.326;2024-01-30T06:06:48;1036.35;;;-2.06;32.96
46886;BME280;32622;48.202;11.326;2024-01-30T06:08:50;1036.31;;;-1.92;33.13
46886;BME280;32622;48.202;11.326;2024-01-30T06:10:52;1036.41;;;-2.18;33.33
46886;BME280;32622;48.202;11.326;2024-01-30T06:12:54;1036.38;;;-2.02;33.12
46886;BME280;32622;48.202;11.326;2024-01-30T06:14:57;1036.39;;;-1.96;33.04
46886;BME280;32622;48.202;11.326;2024-01-30T06:16:59;1036.50;;;-2.37;33.17
46886;BME280;32622;48.202;11.326;2024-01-30T06:19:01;1036.40;;;-1.80;32.95
46886;BME280;32622;48.202;11.326;2024-01-30T06:21:05;1036.44;;;-2.04;33.05
46886;BME280;32622;48.202;11.326;2024-01-30T06:23:07;1036.47;;;-2.05;33.03
46886;BME280;32622;48.202;11.326;2024-01-30T06:25:09;1036.51;;;-2.12;33.07
46886;BME280;32622;48.202;11.326;2024-01-30T06:27:11;1036.44;;;-1.85;32.91
46886;BME280;32622;48.202;11.326;2024-01-30T06:29:13;1036.47;;;-1.99;32.92
46886;BME280;32622;48.202;11.326;2024-01-30T06:31:15;1036.43;;;-1.87;32.56
46886;BME280;32622;48.202;11.326;2024-01-30T06:33:17;1036.39;;;-1.69;32.76
46886;BME280;32622;48.202;11.326;2024-01-30T06:35:20;1036.53;;;-2.15;33.11
46886;BME280;32622;48.202;11.326;2024-01-30T06:37:22;1036.54;;;-2.06;33.15
46886;BME280;32622;48.202;11.326;2024-01-30T06:39:24;1036.54;;;-1.92;32.96
46886;BME280;32622;48.202;11.326;2024-01-30T06:41:26;1036.52;;;-1.89;32.98
46886;BME280;32622;48.202;11.326;2024-01-30T06:43:28;1036.61;;;-2.17;33.18
46886;BME280;32622;48.202;11.326;2024-01-30T06:45:30;1036.59;;;-2.02;33.09
46886;BME280;32622;48.202;11.326;2024-01-30T06:47:32;1036.70;;;-2.39;33.01
46886;BME280;32622;48.202;11.326;2024-01-30T06:49:35;1036.62;;;-2.07;33.17
46886;BME280;32622;48.202;11.326;2024-01-30T06:51:37;1036.66;;;-2.09;33.37
46886;BME280;32622;48.202;11.326;2024-01-30T06:53:39;1036.73;;;-2.34;33.24
46886;BME280;32622;48.202;11.326;2024-01-30T06:55:41;1036.52;;;-1.56;32.87
46886;BME280;32622;48.202;11.326;2024-01-30T06:57:43;1036.71;;;-2.34;33.22
46886;BME280;32622;48.202;11.326;2024-01-30T06:59:45;1036.56;;;-1.75;33.08
46886;BME280;32622;48.202;11.326;2024-01-30T07:01:47;1036.67;;;-2.12;33.08
46886;BME280;32622;48.202;11.326;2024-01-30T07:03:50;1036.66;;;-2.13;33.34
46886;BME280;32622;48.202;11.326;2024-01-30T07:05:52;1036.63;;;-2.07;33.44
46886;BME280;32622;48.202;11.326;2024-01-30T07:07:54;1036.70;;;-2.27;33.10
46886;BME280;32622;48.202;11.326;2024-01-30T07:09:56;1036.61;;;-2.00;33.09
46886;BME280;32622;48.202;11.326;2024-01-30T07:11:58;1036.66;;;-2.14;33.26
46886;BME280;32622;48.202;11.326;2024-01-30T07:14:01;1036.61;;;-1.91;33.54
46886;BME280;32622;48.202;11.326;2024-01-30T07:16:03;1036.49;;;-1.43;33.08
46886;BME280;32622;48.202;11.326;2024-01-30T07:18:06;1036.54;;;-1.53;33.21
46886;BME280;32622;48.202;11.326;2024-01-30T07:20:09;1036.51;;;-1.45;32.82
46886;BME280;32622;48.202;11.326;2024-01-30T07:22:11;1036.51;;;-1.28;33.06
46886;BME280;32622;48.202;11.326;2024-01-30T07:24:13;1036.66;;;-1.87;33.31
46886;BME280;32622;48.202;11.326;2024-01-30T07:26:15;1036.57;;;-1.51;33.61
46886;BME280;32622;48.202;11.326;2024-01-30T07:28:17;1036.54;;;-1.31;33.54
46886;BME280;32622;48.202;11.326;2024-01-30T07:30:19;1036.48;;;-1.12;33.29
46886;BME280;32622;48.202;11.326;2024-01-30T07:32:21;1036.59;;;-1.45;33.17
46886;BME280;32622;48.202;11.326;2024-01-30T07:34:24;1036.66;;;-1.63;33.11
46886;BME280;32622;48.202;11.326;2024-01-30T07:36:26;1036.56;;;-1.20;32.86
46886;BME280;32622;48.202;11.326;2024-01-30T07:38:28;1036.63;;;-1.36;32.94
46886;BME280;32622;48.202;11.326;2024-01-30T07:40:31;1036.50;;;-0.79;32.82
46886;BME280;32622;48.202;11.326;2024-01-30T07:42:33;1036.57;;;-1.09;32.89
46886;BME280;32622;48.202;11.326;2024-01-30T07:44:35;1036.55;;;-0.87;32.82
46886;BME280;32622;48.202;11.326;2024-01-30T07:46:37;1036.52;;;-0.69;32.87
46886;BME280;32622;48.202;11.326;2024-01-30T07:48:39;1036.61;;;-0.93;32.77
46886;BME280;32622;48.202;11.326;2024-01-30T07:50:41;1036.61;;;-0.86;32.69
46886;BME280;32622;48.202;11.326;2024-01-30T07:52:44;1036.60;;;-0.80;32.70
46886;BME280;32622;48.202;11.326;2024-01-30T07:54:46;1036.56;;;-0.68;32.63
46886;BME280;32622;48.202;11.326;2024-01-30T07:56:48;1036.60;;;-0.74;32.73
46886;BME280;32622;48.202;11.326;2024-01-30T07:58:50;1036.56;;;-0.57;32.96
46886;BME280;32622;48.202;11.326;2024-01-30T08:00:52;1036.64;;;-0.80;32.82
46886;BME280;32622;48.202;11.326;2024-01-30T08:02:55;1036.52;;;-0.33;32.94
46886;BME280;32622;48.202;11.326;2024-01-30T08:04:57;1036.57;;;-0.52;32.97
46886;BME280;32622;48.202;11.326;2024-01-30T08:06:59;1036.58;;;-0.50;33.31
46886;BME280;32622;48.202;11.326;2024-01-30T08:09:01;1036.60;;;-0.46;33.46
46886;BME280;32622;48.202;11.326;2024-01-30T08:11:04;1036.62;;;-0.46;33.37
46886;BME280;32622;48.202;11.326;2024-01-30T08:13:06;1036.78;;;-0.99;33.82
46886;BME280;32622;48.202;11.326;2024-01-30T08:15:09;1036.73;;;-0.77;33.88
46886;BME280;32622;48.202;11.326;2024-01-30T08:17:11;1036.65;;;-0.52;33.85
46886;BME280;32622;48.202;11.326;2024-01-30T08:19:14;1036.54;;;-0.03;34.25
46886;BME280;32622;48.202;11.326;2024-01-30T08:21:17;1036.44;;;0.25;34.23
46886;BME280;32622;48.202;11.326;2024-01-30T08:23:19;1036.53;;;-0.13;34.15
46886;BME280;32622;48.202;11.326;2024-01-30T08:25:21;1036.48;;;0.09;34.42
46886;BME280;32622;48.202;11.326;2024-01-30T08:27:23;1036.57;;;-0.33;34.13
46886;BME280;32622;48.202;11.326;2024-01-30T08:29:25;1036.52;;;0.03;33.93
46886;BME280;32622;48.202;11.326;2024-01-30T08:31:27;1036.45;;;0.22;34.55
46886;BME280;32622;48.202;11.326;2024-01-30T08:33:29;1036.43;;;0.25;34.16
46886;BME280;32622;48.202;11.326;2024-01-30T08:35:31;1036.40;;;0.38;33.99
46886;BME280;32622;48.202;11.326;2024-01-30T08:37:34;1036.21;;;1.13;33.59
46886;BME280;32622;48.202;11.326;2024-01-30T08:39:36;1036.23;;;1.03;33.36
46886;BME280;32622;48.202;11.326;2024-01-30T08:41:38;1036.20;;;1.08;33.51
46886;BME280;32622;48.202;11.326;2024-01-30T08:43:40;1036.31;;;0.63;33.70
46886;BME280;32622;48.202;11.326;2024-01-30T08:45:42;1036.34;;;0.47;34.05
46886;BME280;32622;48.202;11.326;2024-01-30T08:47:45;1036.33;;;0.71;34.26
46886;BME280;32622;48.202;11.326;2024-01-30T08:49:47;1036.26;;;1.04;34.08
46886;BME280;32622;48.202;11.326;2024-01-30T08:51:49;1036.36;;;0.73;33.75
46886;BME280;32622;48.202;11.326;2024-01-30T08:53:51;1036.32;;;0.78;33.68
46886;BME280;32622;48.202;11.326;2024-01-30T08:55:54;1036.25;;;0.91;33.62
46886;BME280;32622;48.202;11.326;2024-01-30T08:57:56;1036.16;;;1.41;33.58
46886;BME280;32622;48.202;11.326;2024-01-30T08:59:58;1036.20;;;1.44;33.38
46886;BME280;32622;48.202;11.326;2024-01-30T09:02:00;1036.19;;;1.47;33.43
46886;BME280;32622;48.202;11.326;2024-01-30T09:04:03;1036.17;;;1.79;33.43
46886;BME280;32622;48.202;11.326;2024-01-30T09:06:08;1036.21;;;1.52;33.72
46886;BME280;32622;48.202;11.326;2024-01-30T09:08:10;1036.14;;;2.03;33.48
46886;BME280;32622;48.202;11.326;2024-01-30T09:10:12;1036.25;;;1.74;33.67
46886;BME280;32622;48.202;11.326;2024-01-30T09:12:14;1036.25;;;1.86;33.69
46886;BME280;32622;48.202;11.326;2024-01-30T09:14:17;1036.23;;;2.00;33.64
46886;BME280;32622;48.202;11.326;2024-01-30T09:16:19;1036.33;;;1.61;34.01
46886;BME280;32622;48.202;11.326;2024-01-30T09:18:21;1036.28;;;1.89;33.59
46886;BME280;32622;48.202;11.326;2024-01-30T09:20:23;1036.33;;;1.68;33.23
46886;BME280;32622;48.202;11.326;2024-01-30T09:22:25;1036.24;;;1.95;32.98
46886;BME280;32622;48.202;11.326;2024-01-30T09:24:27;1036.16;;;2.36;32.64
46886;BME280;32622;48.202;11.326;2024-01-30T09:26:29;1036.24;;;2.12;33.06
46886;BME280;32622;48.202;11.326;2024-01-30T09:28:32;1036.42;;;1.39;33.55
46886;BME280;32622;48.202;11.326;2024-01-30T09:30:34;1036.18;;;2.37;33.35
46886;BME280;32622;48.202;11.326;2024-01-30T09:32:36;1036.28;;;1.87;33.42
46886;BME280;32622;48.202;11.326;2024-01-30T09:34:38;1036.18;;;2.21;33.32
46886;BME280;32622;48.202;11.326;2024-01-30T09:36:40;1036.18;;;2.13;33.35
46886;BME280;32622;48.202;11.326;2024-01-30T09:38:42;1036.08;;;2.59;33.49
46886;BME280;32622;48.202;11.326;2024-01-30T09:40:45;1036.24;;;1.88;33.70
46886;BME280;32622;48.202;11.326;2024-01-30T09:42:50;1036.10;;;2.36;33.53
46886;BME280;32622;48.202;11.326;2024-01-30T09:44:54;1035.87;;;3.26;32.76
46886;BME280;32622;48.202;11.326;2024-01-30T09:46:56;1036.17;;;2.11;33.31
46886;BME280;32622;48.202;11.326;2024-01-30T09:48:59;1036.02;;;2.62;33.35
46886;BME280;32622;48.202;11.326;2024-01-30T09:51:02;1036.14;;;2.19;33.49
46886;BME280;32622;48.202;11.326;2024-01-30T09:53:05;1035.94;;;2.86;33.02
46886;BME280;32622;48.202;11.326;2024-01-30T09:55:09;1036.21;;;1.95;33.90
46886;BME280;32622;48.202;11.326;2024-01-30T09:57:11;1036.07;;;2.36;33.25
46886;BME280;32622;48.202;11.326;2024-01-30T09:59:13;1035.96;;;2.82;32.95
46886;BME280;32622;48.202;11.326;2024-01-30T10:01:18;1035.94;;;2.68;32.73
46886;BME280;32622;48.202;11.326;2024-01-30T10:03:20;1035.87;;;2.72;32.55
46886;BME280;32622;48.202;11.326;2024-01-30T10:05:27;1035.77;;;3.28;32.35
46886;BME280;32622;48.202;11.326;2024-01-30T10:07:29;1035.86;;;2.80;32.36
46886;BME280;32622;48.202;11.326;2024-01-30T10:09:32;1035.72;;;3.51;31.49
46886;BME280;32622;48.202;11.326;2024-01-30T10:11:36;1035.97;;;2.59;32.21
46886;BME280;32622;48.202;11.326;2024-01-30T10:13:39;1035.97;;;2.62;32.13
46886;BME280;32622;48.202;11.326;2024-01-30T10:15:41;1035.70;;;3.55;31.19
46886;BME280;32622;48.202;11.326;2024-01-30T10:17:44;1035.86;;;2.86;31.33
46886;BME280;32622;48.202;11.326;2024-01-30T10:19:47;1035.78;;;3.16;31.67
46886;BME280;32622;48.202;11.326;2024-01-30T10:21:49;1035.77;;;3.06;31.91
46886;BME280;32622;48.202;11.326;2024-01-30T10:23:51;1035.61;;;3.53;31.88
46886;BME280;32622;48.202;11.326;2024-01-30T10:25:54;1035.56;;;3.72;31.96
46886;BME280;32622;48.202;11.326;2024-01-30T10:27:57;1035.66;;;3.35;31.90
46886;BME280;32622;48.202;11.326;2024-01-30T10:29:59;1035.73;;;3.07;31.84
46886;BME280;32622;48.202;11.326;2024-01-30T10:32:02;1035.75;;;2.91;32.35
46886;BME280;32622;48.202;11.326;2024-01-30T10:34:05;1035.73;;;2.89;32.30
46886;BME280;32622;48.202;11.326;2024-01-30T10:36:07;1035.59;;;3.29;31.67
46886;BME280;32622;48.202;11.326;2024-01-30T10:38:13;1035.58;;;3.16;31.63
46886;BME280;32622;48.202;11.326;2024-01-30T10:40:17;1035.53;;;3.09;31.61
46886;BME280;32622;48.202;11.326;2024-01-30T10:42:25;1035.35;;;3.83;30.71
46886;BME280;32622;48.202;11.326;2024-01-30T10:44:30;1035.27;;;4.03;31.06
46886;BME280;32622;48.202;11.326;2024-01-30T10:46:37;1035.32;;;3.65;31.12
46886;BME280;32622;48.202;11.326;2024-01-30T10:48:43;1035.18;;;4.12;31.06
46886;BME280;32622;48.202;11.326;2024-01-30T10:50:45;1035.18;;;3.91;30.71